Nocc Atlantic — LAHZ7 — position and weather

sailwx.info

Track history (hours):
 
Tides and Currents Weather Stations Pressure Air Temp Water Temp Dewpoint Dewpoint Depression Visibility Wind Speed Wind Dir Waves Ship Positions

Nocc Atlantic

Last reported at 2018-Jul-19 13:28 UTC. Time now 2018-Jul-19 13:28 UTC.
Position N 53°06' E 004°17'.

Length 200 m; draft 9.8 m.

Type: Cargo ship. MMSI: 259976000.

Date/timePositionNaut miles runAvg speedWind from/ knotsBaromVisibWave heightAir tempDewpointWater temp
2018-Jul-19 13:28N 53°06' E 004°17'716.0
2018-Jul-19 13:00N 53°12' E 004°25'815.6
2018-Jul-19 12:30N 53°19' E 004°30'815.3
2018-Jul-19 12:00N 53°26' E 004°36'713.8
2018-Jul-19 11:30N 53°30' E 004°44'714.5
2018-Jul-19 11:00N 53°33' E 004°56'714.4
2018-Jul-19 10:30N 53°35' E 005°07'714.5
2018-Jul-19 10:00N 53°37' E 005°19'714.6
2018-Jul-19 09:30N 53°40' E 005°31'815.2
2018-Jul-19 09:01N 53°42' E 005°43'815.9
2018-Jul-19 08:30N 53°45' E 005°56'816.5
2018-Jul-19 08:00N 53°47' E 006°09'2116.8
2018-Jul-19 06:47N 53°53' E 006°42'816.7
2018-Jul-19 06:19N 53°54' E 006°55'716.4
2018-Jul-19 05:54N 53°56' E 007°07'716.2
2018-Jul-19 05:27N 53°57' E 007°18'716.0
2018-Jul-19 05:00N 53°59' E 007°31'713.1
2018-Jul-19 04:28N 53°57' E 007°42'714.0
2018-Jul-19 04:00N 53°53' E 007°50'713.8
2018-Jul-19 03:30N 53°51' E 008°02'815.8
2018-Jul-19 03:00N 53°46' E 008°11'815.2
2018-Jul-19 02:31N 53°41' E 008°21'713.7
2018-Jul-19 02:00N 53°36' E 008°30'3 6.6
2018-Jul-19 01:30N 53°34' E 008°33'1 1.2
2018-Jul-19 01:00N 53°34' E 008°33'0 0.7
2018-Jul-19 00:30N 53°35' E 008°33'0 0.0
2018-Jul-18 23:59N 53°35' E 008°33'0 0.0
2018-Jul-18 23:29N 53°35' E 008°33'0 0.0
2018-Jul-18 22:59N 53°35' E 008°33'0 0.0
2018-Jul-18 22:29N 53°35' E 008°33'0 0.0
2018-Jul-18 21:59N 53°35' E 008°33'0 0.0
2018-Jul-18 21:29N 53°35' E 008°33'0 0.0
2018-Jul-18 20:59N 53°35' E 008°33'0 0.0
2018-Jul-18 20:29N 53°35' E 008°33'0 0.0
2018-Jul-18 19:59N 53°35' E 008°33'0 0.0
2018-Jul-18 19:29N 53°35' E 008°33'0 0.0
2018-Jul-18 18:59N 53°35' E 008°33'0 0.0
2018-Jul-18 18:29N 53°35' E 008°33'0 0.0
2018-Jul-18 17:59N 53°35' E 008°33'0 0.0
2018-Jul-18 17:29N 53°35' E 008°33'0 0.0
2018-Jul-18 16:59N 53°35' E 008°33'0 0.0
2018-Jul-18 16:29N 53°35' E 008°33'0 0.0
2018-Jul-18 15:59N 53°35' E 008°33'0 0.0
2018-Jul-18 15:29N 53°35' E 008°33'0 0.0
2018-Jul-18 14:56N 53°35' E 008°33'0 0.0
2018-Jul-18 14:29N 53°35' E 008°33'0 0.0
2018-Jul-18 13:29N 53°35' E 008°33'0 0.0
2018-Jul-18 12:59N 53°35' E 008°33'0 0.0
2018-Jul-18 12:29N 53°35' E 008°33'0 0.0
2018-Jul-18 11:59N 53°35' E 008°33'0 0.0
2018-Jul-18 11:29N 53°35' E 008°33'0 0.0
2018-Jul-18 10:29N 53°35' E 008°33'0 0.0
2018-Jul-18 09:59N 53°35' E 008°33'0 0.0
2018-Jul-18 09:29N 53°35' E 008°33'0 0.0
2018-Jul-18 08:59N 53°35' E 008°33'0 0.0
2018-Jul-18 08:29N 53°35' E 008°33'0 0.0
2018-Jul-18 07:59N 53°35' E 008°33'0 0.0
2018-Jul-18 07:29N 53°35' E 008°33'0 0.0
2018-Jul-18 06:59N 53°35' E 008°33'0 0.0
2018-Jul-18 06:29N 53°35' E 008°33'0 0.0
2018-Jul-18 05:59N 53°35' E 008°33'0 0.0
2018-Jul-18 05:29N 53°35' E 008°33'0 0.0
2018-Jul-18 04:59N 53°35' E 008°33'0 0.0
2018-Jul-18 04:29N 53°35' E 008°33'0 0.0
2018-Jul-18 03:56N 53°35' E 008°33'0 0.0
2018-Jul-18 03:29N 53°35' E 008°33'0 0.0
2018-Jul-18 02:56N 53°35' E 008°33'0 0.0
2018-Jul-18 02:26N 53°35' E 008°33'0 0.0
2018-Jul-18 01:59N 53°35' E 008°33'0 0.0
2018-Jul-18 01:29N 53°35' E 008°33'0 0.3
2018-Jul-18 01:00N 53°34' E 008°33'0 0.3
2018-Jul-18 00:30N 53°34' E 008°33'1 2.5
2018-Jul-18 00:00N 53°35' E 008°31'815.1
2018-Jul-17 23:30N 53°40' E 008°22'815.3
2018-Jul-17 23:01N 53°45' E 008°12'816.2
2018-Jul-17 22:30N 53°51' E 008°02'714.4
2018-Jul-17 22:00N 53°52' E 007°50'3 2.6
2018-Jul-17 20:44N 53°55' E 007°47'0 0.1
2018-Jul-17 20:26N 53°55' E 007°47'0 0.1
2018-Jul-17 19:59N 53°55' E 007°47'0 0.0
2018-Jul-17 19:20N 53°55' E 007°47'0 0.1
2018-Jul-17 18:53N 53°55' E 007°47'0 0.0
2018-Jul-17 17:11N 53°55' E 007°47'0 0.1
2018-Jul-17 16:56N 53°55' E 007°47'0 0.0
2018-Jul-17 13:32N 53°55' E 007°47'0 0.0
2018-Jul-17 13:11N 53°55' E 007°47'0 0.0
2018-Jul-17 12:59N 53°55' E 007°47'0 0.0
2018-Jul-17 08:35N 53°55' E 007°46'0 0.1
2018-Jul-17 08:26N 53°55' E 007°46'0 0.0
2018-Jul-17 07:59N 53°55' E 007°46'0 0.0
2018-Jul-17 07:23N 53°55' E 007°46'0 0.0
2018-Jul-17 06:59N 53°55' E 007°46'0 0.0
2018-Jul-17 06:26N 53°55' E 007°46'0 0.0
2018-Jul-17 05:56N 53°55' E 007°46'0 0.1
2018-Jul-17 05:26N 53°55' E 007°46'0 0.0
2018-Jul-17 04:59N 53°55' E 007°46'0 0.0
2018-Jul-17 04:29N 53°55' E 007°46'0 0.0
2018-Jul-17 03:50N 53°55' E 007°46'0 0.0
2018-Jul-17 03:29N 53°55' E 007°46'0 0.1
2018-Jul-17 02:53N 53°55' E 007°47'0 0.0
2018-Jul-17 02:02N 53°55' E 007°47'0 0.0
2018-Jul-17 01:59N 53°55' E 007°47'0 0.0
2018-Jul-17 01:29N 53°55' E 007°47'0 0.0
2018-Jul-17 00:56N 53°55' E 007°47'0 0.0
2018-Jul-17 00:29N 53°55' E 007°47'0 0.0
2018-Jul-16 23:29N 53°55' E 007°47'0 0.0
2018-Jul-16 22:56N 53°55' E 007°47'0 0.0
2018-Jul-16 22:29N 53°55' E 007°47'0 0.1
2018-Jul-16 21:59N 53°55' E 007°47'0 0.2
2018-Jul-16 21:29N 53°55' E 007°46'0 0.0
2018-Jul-16 20:59N 53°55' E 007°46'0 0.1
2018-Jul-16 20:29N 53°55' E 007°46'0 0.0
2018-Jul-16 19:59N 53°55' E 007°46'0 0.0
2018-Jul-16 19:29N 53°55' E 007°46'0 0.0
2018-Jul-16 18:59N 53°55' E 007°46'0 0.0
2018-Jul-16 18:29N 53°55' E 007°46'0 0.0
2018-Jul-16 17:59N 53°55' E 007°46'0 0.0
2018-Jul-16 17:26N 53°55' E 007°46'0 0.0
2018-Jul-16 16:59N 53°55' E 007°46'0 0.0
2018-Jul-16 16:29N 53°55' E 007°46'0 0.1
2018-Jul-16 15:59N 53°55' E 007°46'0 0.1
2018-Jul-16 15:29N 53°55' E 007°46'0 0.0
2018-Jul-16 14:59N 53°55' E 007°46'0 0.0
2018-Jul-16 14:29N 53°55' E 007°46'0 0.0
2018-Jul-16 13:59N 53°55' E 007°46'0 0.0
2018-Jul-16 09:08N 53°55' E 007°46'0 0.3
2018-Jul-16 08:59N 53°55' E 007°46'0 0.0
2018-Jul-16 08:20N 53°55' E 007°46'0 0.0
2018-Jul-16 07:59N 53°55' E 007°46'0 0.0
2018-Jul-16 07:29N 53°55' E 007°46'0 0.0
2018-Jul-16 06:59N 53°55' E 007°46'0 0.0
2018-Jul-16 06:29N 53°55' E 007°46'0 0.0
2018-Jul-16 05:59N 53°55' E 007°46'0 0.0
2018-Jul-16 05:26N 53°55' E 007°46'0 0.0
2018-Jul-16 04:59N 53°55' E 007°46'0 0.0
2018-Jul-16 04:29N 53°55' E 007°46'0 0.0
2018-Jul-16 03:59N 53°55' E 007°46'0 0.0
2018-Jul-16 03:29N 53°55' E 007°46'0 0.0
2018-Jul-16 02:56N 53°55' E 007°46'0 0.0
2018-Jul-16 02:29N 53°55' E 007°46'0 0.0
2018-Jul-16 01:59N 53°55' E 007°46'0 0.0
2018-Jul-16 01:29N 53°55' E 007°46'0 0.1
2018-Jul-16 00:59N 53°55' E 007°47'0 0.0
2018-Jul-16 00:29N 53°55' E 007°47'0 0.0
2018-Jul-15 23:56N 53°55' E 007°47'0 0.0
2018-Jul-15 23:29N 53°55' E 007°47'0 0.0
2018-Jul-15 22:56N 53°55' E 007°47'0 0.0
2018-Jul-15 22:29N 53°55' E 007°47'0 0.0
2018-Jul-15 21:59N 53°55' E 007°47'0 0.0
2018-Jul-15 21:29N 53°55' E 007°47'0 0.1
2018-Jul-15 20:44N 53°55' E 007°46'0 0.1
2018-Jul-15 20:29N 53°55' E 007°46'0 0.0
2018-Jul-15 19:59N 53°55' E 007°46'0 0.0
2018-Jul-15 19:29N 53°55' E 007°46'0 0.0
2018-Jul-15 18:59N 53°55' E 007°46'0 0.0
2018-Jul-15 18:29N 53°55' E 007°46'0 0.1
2018-Jul-15 17:55N 53°55' E 007°46'1 2.0
2018-Jul-15 17:30N 53°55' E 007°45'2 4.9
2018-Jul-15 17:00N 53°55' E 007°41'611.8
2018-Jul-15 16:30N 53°54' E 007°31'713.4
2018-Jul-15 15:59N 53°53' E 007°19'713.6
2018-Jul-15 15:30N 53°51' E 007°09'713.7
2018-Jul-15 14:59N 53°50' E 006°57'813.8
2018-Jul-15 14:25N 53°48' E 006°44'1714.2
2018-Jul-15 13:12N 53°45' E 006°15'714.5
2018-Jul-15 12:45N 53°42' E 006°05'414.7
2018-Jul-15 12:29N 53°41' E 005°58'814.8
2018-Jul-15 11:58N 53°38' E 005°47'714.9
2018-Jul-15 11:30N 53°36' E 005°36'815.2
2018-Jul-15 11:00N 53°33' E 005°24'815.3
2018-Jul-15 10:30N 53°31' E 005°12'815.6
2018-Jul-15 10:01N 53°28' E 004°59'815.7
2018-Jul-15 09:30N 53°26' E 004°47'714.9
2018-Jul-15 09:00N 53°20' E 004°39'815.7
2018-Jul-15 08:30N 53°13' E 004°33'815.9
2018-Jul-15 08:01N 53°06' E 004°27'815.6
2018-Jul-15 07:30N 52°59' E 004°21'815.9
2018-Jul-15 07:00N 52°52' E 004°15'815.9
2018-Jul-15 06:30N 52°45' E 004°07'816.2
2018-Jul-15 06:00N 52°40' E 003°58'816.2
2018-Jul-15 05:30N 52°34' E 003°49'815.3
2018-Jul-15 05:00N 52°29' E 003°39'816.5
2018-Jul-15 04:30N 52°23' E 003°30'816.7
2018-Jul-15 04:00N 52°17' E 003°21'816.9
2018-Jul-15 03:30N 52°11' E 003°11'816.5
2018-Jul-15 03:01N 52°03' E 003°05'816.8
2018-Jul-15 02:30N 51°55' E 003°06'815.8
2018-Jul-15 02:00N 51°48' E 003°12'612.8
2018-Jul-15 01:30N 51°41' E 003°14'815.7
2018-Jul-15 01:00N 51°34' E 003°09'918.3
2018-Jul-15 00:30N 51°27' E 003°00'612.9
2018-Jul-15 00:00N 51°24' E 003°10'815.7
2018-Jul-14 23:30N 51°25' E 003°23'714.8
2018-Jul-14 23:00N 51°26' E 003°34'4 8.8
2018-Jul-14 22:30N 51°26' E 003°41'612.4
2018-Jul-14 22:00N 51°21' E 003°48'713.5
2018-Jul-14 21:30N 51°24' E 003°57'4 7.9
2018-Jul-14 21:00N 51°23' E 004°03'612.5
2018-Jul-14 20:30N 51°22' E 004°13'611.1
2018-Jul-14 20:00N 51°18' E 004°18'2 4.1
2018-Jul-14 19:31N 51°16' E 004°17'0 0.0
2018-Jul-14 19:01N 51°16' E 004°17'1 2.1
2018-Jul-14 18:30N 51°16' E 004°15'1 2.2
2018-Jul-14 17:58N 51°16' E 004°13'0 0.0
2018-Jul-14 17:28N 51°16' E 004°13'0 0.0
2018-Jul-14 16:58N 51°16' E 004°13'0 0.0
2018-Jul-14 16:28N 51°16' E 004°13'0 0.0
2018-Jul-14 15:55N 51°16' E 004°13'0 0.0
2018-Jul-14 15:28N 51°16' E 004°13'0 0.0
2018-Jul-14 14:58N 51°16' E 004°13'0 0.0
2018-Jul-14 14:28N 51°16' E 004°13'0 0.0
2018-Jul-14 13:28N 51°16' E 004°13'0 0.0
2018-Jul-14 12:58N 51°16' E 004°13'0 0.0
2018-Jul-14 12:28N 51°16' E 004°13'0 0.0
2018-Jul-14 11:58N 51°16' E 004°13'0 0.0
2018-Jul-14 11:28N 51°16' E 004°13'0 0.0
2018-Jul-14 10:58N 51°16' E 004°13'0 0.0
2018-Jul-14 10:28N 51°16' E 004°13'0 0.0
2018-Jul-14 09:58N 51°16' E 004°13'0 0.0
2018-Jul-14 09:28N 51°16' E 004°13'0 0.0
2018-Jul-14 08:58N 51°16' E 004°13'0 0.0
2018-Jul-14 08:28N 51°16' E 004°13'0 0.0
2018-Jul-14 07:58N 51°16' E 004°13'0 0.0
2018-Jul-14 07:28N 51°16' E 004°13'0 0.0
2018-Jul-14 06:58N 51°16' E 004°13'0 0.0
2018-Jul-14 06:28N 51°16' E 004°13'0 0.0
2018-Jul-14 05:58N 51°16' E 004°13'0 0.0
2018-Jul-14 05:28N 51°16' E 004°13'0 0.0
2018-Jul-14 04:58N 51°16' E 004°13'0 0.0
2018-Jul-14 04:28N 51°16' E 004°13'0 0.0
2018-Jul-14 03:58N 51°16' E 004°13'0 0.0
2018-Jul-14 03:28N 51°16' E 004°13'0 0.0
2018-Jul-14 02:58N 51°16' E 004°13'0 0.0
2018-Jul-14 02:28N 51°16' E 004°13'0 0.0
2018-Jul-14 01:58N 51°16' E 004°13'0 0.0
2018-Jul-14 01:28N 51°16' E 004°13'0 0.0
2018-Jul-14 00:58N 51°16' E 004°13'0 0.0
2018-Jul-14 00:28N 51°16' E 004°13'0 0.0
2018-Jul-13 23:58N 51°16' E 004°13'0 0.0
2018-Jul-13 23:28N 51°16' E 004°13'0 0.0
2018-Jul-13 22:58N 51°16' E 004°13'0 0.8
2018-Jul-13 22:31N 51°17' E 004°13'2 4.4
2018-Jul-13 22:00N 51°16' E 004°17'0 0.0
2018-Jul-13 21:31N 51°16' E 004°17'0 0.0
2018-Jul-13 21:01N 51°16' E 004°17'2 3.2
2018-Jul-13 20:30N 51°17' E 004°19'3 6.9
2018-Jul-13 20:00N 51°20' E 004°16'5 9.1
2018-Jul-13 19:30N 51°23' E 004°13'510.6
2018-Jul-13 19:00N 51°22' E 004°04'5 9.9
2018-Jul-13 18:31N 51°26' E 003°59'612.8
2018-Jul-13 18:00N 51°21' E 003°52'612.8
2018-Jul-13 17:31N 51°23' E 003°43'5 9.4
2018-Jul-13 17:00N 51°26' E 003°36'611.7
2018-Jul-13 16:30N 51°25' E 003°27'713.0
2018-Jul-13 16:00N 51°24' E 003°16'714.1
2018-Jul-13 15:30N 51°24' E 003°05'714.6
2018-Jul-13 15:00N 51°22' E 002°54'9 9.4
2018-Jul-13 14:00N 51°22' E 002°39'2 4.9
2018-Jul-13 13:30N 51°22' E 002°35'2 4.9
2018-Jul-13 13:00N 51°22' E 002°31'2 3.9
2018-Jul-13 12:30N 51°21' E 002°28'2 3.0
2018-Jul-13 11:52N 51°21' E 002°25'1 2.8
2018-Jul-13 11:29N 51°20' E 002°24'2 3.5
2018-Jul-13 11:00N 51°19' E 002°21'1 3.0
2018-Jul-13 10:30N 51°19' E 002°19'2 4.5
2018-Jul-13 10:00N 51°18' E 002°16'2 4.3
2018-Jul-13 09:30N 51°18' E 002°12'1 2.8
2018-Jul-13 09:00N 51°18' E 002°10'3 5.2
2018-Jul-13 08:30N 51°15' E 002°10'815.7
2018-Jul-13 08:00N 51°12' E 001°58'815.3
2018-Jul-13 07:30N 51°08' E 001°48'815.1
2018-Jul-13 07:00N 51°03' E 001°39'714.9
2018-Jul-13 06:31N 50°57' E 001°32'714.9
2018-Jul-13 06:01N 50°50' E 001°27'815.4
2018-Jul-13 05:31N 50°43' E 001°23'815.5
2018-Jul-13 05:00N 50°37' E 001°15'816.1
2018-Jul-13 04:30N 50°32' E 001°04'815.8
2018-Jul-13 03:59N 50°28' E 000°53'815.9
2018-Jul-13 03:30N 50°25' E 000°42'1615.5
2018-Jul-13 02:28N 50°22' E 000°17'715.3
2018-Jul-13 02:01N 50°20' E 000°07'1115.4
2018-Jul-13 01:18N 50°18' W 000°10'515.3
2018-Jul-13 01:00N 50°17' W 000°17'815.2
2018-Jul-13 00:30N 50°16' W 000°29'713.9
2018-Jul-13 00:00N 50°20' W 000°38'816.4
2018-Jul-12 23:30N 50°27' W 000°44'816.3
2018-Jul-12 23:00N 50°34' W 000°51'815.7
2018-Jul-12 22:30N 50°41' W 000°57'5 9.5
2018-Jul-12 22:01N 50°44' W 001°03'816.2
2018-Jul-12 21:31N 50°46' W 001°15'5 9.9
2018-Jul-12 21:00N 50°50' W 001°19'4 8.5
2018-Jul-12 20:30N 50°53' W 001°24'0 0.4
2018-Jul-12 19:58N 50°53' W 001°24'0 0.0
2018-Jul-12 19:28N 50°53' W 001°24'0 0.0
2018-Jul-12 18:58N 50°53' W 001°24'0 0.0
2018-Jul-12 18:28N 50°53' W 001°24'0 0.0
2018-Jul-12 17:58N 50°53' W 001°24'0 0.0
2018-Jul-12 17:28N 50°53' W 001°24'0 0.0
2018-Jul-12 16:58N 50°53' W 001°24'0 0.0
2018-Jul-12 16:28N 50°53' W 001°24'0 0.0
2018-Jul-12 15:58N 50°53' W 001°24'0 0.0
2018-Jul-12 15:28N 50°53' W 001°24'0 0.0
2018-Jul-12 14:58N 50°53' W 001°24'0 0.0
2018-Jul-12 14:28N 50°53' W 001°24'0 0.0
2018-Jul-12 13:58N 50°53' W 001°24'0 0.0
2018-Jul-12 13:28N 50°53' W 001°24'0 0.0
2018-Jul-12 12:58N 50°53' W 001°24'0 0.0
2018-Jul-12 12:28N 50°53' W 001°24'0 0.0
2018-Jul-12 11:58N 50°53' W 001°24'0 0.0
2018-Jul-12 11:28N 50°53' W 001°24'0 0.0
2018-Jul-12 10:58N 50°53' W 001°24'0 0.0
2018-Jul-12 10:28N 50°53' W 001°24'0 0.0
2018-Jul-12 09:58N 50°53' W 001°24'0 0.0
2018-Jul-12 09:28N 50°53' W 001°24'0 0.0
2018-Jul-12 08:58N 50°53' W 001°24'0 0.0
2018-Jul-12 08:28N 50°53' W 001°24'0 0.0
2018-Jul-12 07:58N 50°53' W 001°24'0 0.0
2018-Jul-12 07:28N 50°53' W 001°24'0 0.0
2018-Jul-12 06:58N 50°53' W 001°24'0 0.0
2018-Jul-12 06:28N 50°53' W 001°24'0 0.0
2018-Jul-12 05:58N 50°53' W 001°24'0 0.0
2018-Jul-12 05:29N 50°53' W 001°24'1 1.9
2018-Jul-12 05:01N 50°53' W 001°23'5 9.6
2018-Jul-12 04:31N 50°49' W 001°18'5 9.8
2018-Jul-12 04:01N 50°46' W 001°12'816.0
2018-Jul-12 03:31N 50°43' W 001°00'4 8.5
2018-Jul-12 03:00N 50°39' W 000°59'2 4.6
2018-Jul-12 02:31N 50°37' W 001°01'1 2.2
2018-Jul-12 02:00N 50°37' W 001°03'0 0.0
2018-Jul-12 01:30N 50°37' W 001°03'0 0.0
2018-Jul-12 01:00N 50°37' W 001°03'0 0.0
2018-Jul-12 00:30N 50°37' W 001°03'0 0.0
2018-Jul-12 00:00N 50°37' W 001°03'0 0.0
2018-Jul-11 23:30N 50°37' W 001°03'0 0.0
2018-Jul-11 23:00N 50°37' W 001°03'0 0.0
2018-Jul-11 22:30N 50°37' W 001°03'0 0.0
2018-Jul-11 22:00N 50°37' W 001°03'0 0.1
2018-Jul-11 21:30N 50°37' W 001°03'0 0.0
2018-Jul-11 21:00N 50°37' W 001°03'0 0.0
2018-Jul-11 20:30N 50°37' W 001°03'0 0.0
2018-Jul-11 20:00N 50°37' W 001°03'0 0.0
2018-Jul-11 19:30N 50°37' W 001°03'0 0.0
2018-Jul-11 19:00N 50°37' W 001°03'0 0.0
2018-Jul-11 18:30N 50°37' W 001°03'0 0.0
2018-Jul-11 18:00N 50°37' W 001°03'0 0.0
2018-Jul-11 17:30N 50°37' W 001°03'0 0.0
2018-Jul-11 17:00N 50°37' W 001°03'0 0.0
2018-Jul-11 16:30N 50°37' W 001°03'0 0.0
2018-Jul-11 16:00N 50°37' W 001°03'0 0.0
2018-Jul-11 15:30N 50°37' W 001°03'0 0.0
2018-Jul-11 15:00N 50°37' W 001°03'0 0.2
2018-Jul-11 14:30N 50°37' W 001°03'0 0.0
2018-Jul-11 14:00N 50°37' W 001°03'0 0.0
2018-Jul-11 13:30N 50°37' W 001°03'0 0.0
2018-Jul-11 13:00N 50°37' W 001°03'0 0.0
2018-Jul-11 12:30N 50°37' W 001°03'0 0.0
2018-Jul-11 12:00N 50°37' W 001°03'0 0.0
2018-Jul-11 11:30N 50°37' W 001°03'0 0.0
2018-Jul-11 11:00N 50°37' W 001°03'0 0.0
2018-Jul-11 10:30N 50°37' W 001°03'0 0.0
2018-Jul-11 10:00N 50°37' W 001°03'0 0.0
2018-Jul-11 09:30N 50°37' W 001°03'0 0.0
2018-Jul-11 09:00N 50°37' W 001°03'0 0.2
2018-Jul-11 08:30N 50°37' W 001°03'0 0.1
2018-Jul-11 08:00N 50°37' W 001°03'0 0.0
2018-Jul-11 07:30N 50°37' W 001°03'0 0.0
2018-Jul-11 07:00N 50°37' W 001°03'0 0.0
2018-Jul-11 06:30N 50°37' W 001°03'0 0.0
2018-Jul-11 06:00N 50°37' W 001°03'0 0.0
2018-Jul-11 05:30N 50°37' W 001°03'0 0.0
2018-Jul-11 05:00N 50°37' W 001°03'0 0.0
2018-Jul-11 04:30N 50°37' W 001°03'0 0.0
2018-Jul-11 04:00N 50°37' W 001°03'0 0.1
2018-Jul-11 03:30N 50°37' W 001°03'1 2.6
2018-Jul-11 03:01N 50°36' W 001°02'4 7.2
2018-Jul-11 02:31N 50°33' W 001°04'4 7.7
2018-Jul-11 02:00N 50°29' W 001°06'5 9.5
2018-Jul-11 01:30N 50°25' W 001°08'1113.0
2018-Jul-11 00:39N 50°14' W 001°07'212.9
2018-Jul-11 00:30N 50°12' W 001°08'611.5
2018-Jul-10 23:57N 50°08' W 001°16'511.7
2018-Jul-10 23:30N 50°07' W 001°24'611.7
2018-Jul-10 23:00N 50°05' W 001°33'611.9
2018-Jul-10 22:30N 50°03' W 001°41'1712.8
2018-Jul-10 21:12N 49°58' W 002°06'614.0
2018-Jul-10 20:48N 49°57' W 002°15'414.3
2018-Jul-10 20:30N 49°55' W 002°21'814.9
2018-Jul-10 19:57N 49°53' W 002°33'715.5
2018-Jul-10 19:30N 49°51' W 002°43'815.3
2018-Jul-10 19:00N 49°49' W 002°55'815.5
2018-Jul-10 18:30N 49°48' W 003°07'714.4
2018-Jul-10 18:00N 49°47' W 003°18'714.7
2018-Jul-10 17:30N 49°46' W 003°29'715.0
2018-Jul-10 17:00N 49°46' W 003°41'815.9
2018-Jul-10 16:30N 49°45' W 003°53'915.9
2018-Jul-10 15:58N 49°44' W 004°06'2110.5
2018-Jul-10 13:58N 49°42' W 004°38'911.7
2018-Jul-10 13:12N 49°44' W 004°25'4714.0
2018-Jul-10 09:50N 49°39' W 005°37'1214.0
2018-Jul-10 09:01N 49°39' W 005°55'015.2
2018-Jul-10 09:00N 49°39' W 005°55'7114.1
2018-Jul-10 03:57N 49°36' W 007°45'  
Track history (hours):
 
Tides and Currents Weather Stations Pressure Air Temp Water Temp Dewpoint Dewpoint Depression Visibility Wind Speed Wind Dir Waves Ship Positions

Nocc Atlantic

Last reported at 2018-Jul-19 13:28 UTC. Time now 2018-Jul-19 13:28 UTC.
Position N 53°06' E 004°17'.

Length 200 m; draft 9.8 m.

Type: Cargo ship. MMSI: 259976000.

Date/timePositionNaut miles runAvg speedWind from/ knotsBaromVisibWave heightAir tempDewpointWater temp
2018-Jul-19 13:28N 53°06' E 004°17'716.0
2018-Jul-19 13:00N 53°12' E 004°25'815.6
2018-Jul-19 12:30N 53°19' E 004°30'815.3
2018-Jul-19 12:00N 53°26' E 004°36'713.8
2018-Jul-19 11:30N 53°30' E 004°44'714.5
2018-Jul-19 11:00N 53°33' E 004°56'714.4
2018-Jul-19 10:30N 53°35' E 005°07'714.5
2018-Jul-19 10:00N 53°37' E 005°19'714.6
2018-Jul-19 09:30N 53°40' E 005°31'815.2
2018-Jul-19 09:01N 53°42' E 005°43'815.9
2018-Jul-19 08:30N 53°45' E 005°56'816.5
2018-Jul-19 08:00N 53°47' E 006°09'2116.8
2018-Jul-19 06:47N 53°53' E 006°42'816.7
2018-Jul-19 06:19N 53°54' E 006°55'716.4
2018-Jul-19 05:54N 53°56' E 007°07'716.2
2018-Jul-19 05:27N 53°57' E 007°18'716.0
2018-Jul-19 05:00N 53°59' E 007°31'713.1
2018-Jul-19 04:28N 53°57' E 007°42'714.0
2018-Jul-19 04:00N 53°53' E 007°50'713.8
2018-Jul-19 03:30N 53°51' E 008°02'815.8
2018-Jul-19 03:00N 53°46' E 008°11'815.2
2018-Jul-19 02:31N 53°41' E 008°21'713.7
2018-Jul-19 02:00N 53°36' E 008°30'3 6.6
2018-Jul-19 01:30N 53°34' E 008°33'1 1.2
2018-Jul-19 01:00N 53°34' E 008°33'0 0.7
2018-Jul-19 00:30N 53°35' E 008°33'0 0.0
2018-Jul-18 23:59N 53°35' E 008°33'0 0.0
2018-Jul-18 23:29N 53°35' E 008°33'0 0.0
2018-Jul-18 22:59N 53°35' E 008°33'0 0.0
2018-Jul-18 22:29N 53°35' E 008°33'0 0.0
2018-Jul-18 21:59N 53°35' E 008°33'0 0.0
2018-Jul-18 21:29N 53°35' E 008°33'0 0.0
2018-Jul-18 20:59N 53°35' E 008°33'0 0.0
2018-Jul-18 20:29N 53°35' E 008°33'0 0.0
2018-Jul-18 19:59N 53°35' E 008°33'0 0.0
2018-Jul-18 19:29N 53°35' E 008°33'0 0.0
2018-Jul-18 18:59N 53°35' E 008°33'0 0.0
2018-Jul-18 18:29N 53°35' E 008°33'0 0.0
2018-Jul-18 17:59N 53°35' E 008°33'0 0.0
2018-Jul-18 17:29N 53°35' E 008°33'0 0.0
2018-Jul-18 16:59N 53°35' E 008°33'0 0.0
2018-Jul-18 16:29N 53°35' E 008°33'0 0.0
2018-Jul-18 15:59N 53°35' E 008°33'0 0.0
2018-Jul-18 15:29N 53°35' E 008°33'0 0.0
2018-Jul-18 14:56N 53°35' E 008°33'0 0.0
2018-Jul-18 14:29N 53°35' E 008°33'0 0.0
2018-Jul-18 13:29N 53°35' E 008°33'0 0.0
2018-Jul-18 12:59N 53°35' E 008°33'0 0.0
2018-Jul-18 12:29N 53°35' E 008°33'0 0.0
2018-Jul-18 11:59N 53°35' E 008°33'0 0.0
2018-Jul-18 11:29N 53°35' E 008°33'0 0.0
2018-Jul-18 10:29N 53°35' E 008°33'0 0.0
2018-Jul-18 09:59N 53°35' E 008°33'0 0.0
2018-Jul-18 09:29N 53°35' E 008°33'0 0.0
2018-Jul-18 08:59N 53°35' E 008°33'0 0.0
2018-Jul-18 08:29N 53°35' E 008°33'0 0.0
2018-Jul-18 07:59N 53°35' E 008°33'0 0.0
2018-Jul-18 07:29N 53°35' E 008°33'0 0.0
2018-Jul-18 06:59N 53°35' E 008°33'0 0.0
2018-Jul-18 06:29N 53°35' E 008°33'0 0.0
2018-Jul-18 05:59N 53°35' E 008°33'0 0.0
2018-Jul-18 05:29N 53°35' E 008°33'0 0.0
2018-Jul-18 04:59N 53°35' E 008°33'0 0.0
2018-Jul-18 04:29N 53°35' E 008°33'0 0.0
2018-Jul-18 03:56N 53°35' E 008°33'0 0.0
2018-Jul-18 03:29N 53°35' E 008°33'0 0.0
2018-Jul-18 02:56N 53°35' E 008°33'0 0.0
2018-Jul-18 02:26N 53°35' E 008°33'0 0.0
2018-Jul-18 01:59N 53°35' E 008°33'0 0.0
2018-Jul-18 01:29N 53°35' E 008°33'0 0.3
2018-Jul-18 01:00N 53°34' E 008°33'0 0.3
2018-Jul-18 00:30N 53°34' E 008°33'1 2.5
2018-Jul-18 00:00N 53°35' E 008°31'815.1
2018-Jul-17 23:30N 53°40' E 008°22'815.3
2018-Jul-17 23:01N 53°45' E 008°12'816.2
2018-Jul-17 22:30N 53°51' E 008°02'714.4
2018-Jul-17 22:00N 53°52' E 007°50'3 2.6
2018-Jul-17 20:44N 53°55' E 007°47'0 0.1
2018-Jul-17 20:26N 53°55' E 007°47'0 0.1
2018-Jul-17 19:59N 53°55' E 007°47'0 0.0
2018-Jul-17 19:20N 53°55' E 007°47'0 0.1
2018-Jul-17 18:53N 53°55' E 007°47'0 0.0
2018-Jul-17 17:11N 53°55' E 007°47'0 0.1
2018-Jul-17 16:56N 53°55' E 007°47'0 0.0
2018-Jul-17 13:32N 53°55' E 007°47'0 0.0
2018-Jul-17 13:11N 53°55' E 007°47'0 0.0
2018-Jul-17 12:59N 53°55' E 007°47'0 0.0
2018-Jul-17 08:35N 53°55' E 007°46'0 0.1
2018-Jul-17 08:26N 53°55' E 007°46'0 0.0
2018-Jul-17 07:59N 53°55' E 007°46'0 0.0
2018-Jul-17 07:23N 53°55' E 007°46'0 0.0
2018-Jul-17 06:59N 53°55' E 007°46'0 0.0
2018-Jul-17 06:26N 53°55' E 007°46'0 0.0
2018-Jul-17 05:56N 53°55' E 007°46'0 0.1
2018-Jul-17 05:26N 53°55' E 007°46'0 0.0
2018-Jul-17 04:59N 53°55' E 007°46'0 0.0
2018-Jul-17 04:29N 53°55' E 007°46'0 0.0
2018-Jul-17 03:50N 53°55' E 007°46'0 0.0
2018-Jul-17 03:29N 53°55' E 007°46'0 0.1
2018-Jul-17 02:53N 53°55' E 007°47'0 0.0
2018-Jul-17 02:02N 53°55' E 007°47'0 0.0
2018-Jul-17 01:59N 53°55' E 007°47'0 0.0
2018-Jul-17 01:29N 53°55' E 007°47'0 0.0
2018-Jul-17 00:56N 53°55' E 007°47'0 0.0
2018-Jul-17 00:29N 53°55' E 007°47'0 0.0
2018-Jul-16 23:29N 53°55' E 007°47'0 0.0
2018-Jul-16 22:56N 53°55' E 007°47'0 0.0
2018-Jul-16 22:29N 53°55' E 007°47'0 0.1
2018-Jul-16 21:59N 53°55' E 007°47'0 0.2
2018-Jul-16 21:29N 53°55' E 007°46'0 0.0
2018-Jul-16 20:59N 53°55' E 007°46'0 0.1
2018-Jul-16 20:29N 53°55' E 007°46'0 0.0
2018-Jul-16 19:59N 53°55' E 007°46'0 0.0
2018-Jul-16 19:29N 53°55' E 007°46'0 0.0
2018-Jul-16 18:59N 53°55' E 007°46'0 0.0
2018-Jul-16 18:29N 53°55' E 007°46'0 0.0
2018-Jul-16 17:59N 53°55' E 007°46'0 0.0
2018-Jul-16 17:26N 53°55' E 007°46'0 0.0
2018-Jul-16 16:59N 53°55' E 007°46'0 0.0
2018-Jul-16 16:29N 53°55' E 007°46'0 0.1
2018-Jul-16 15:59N 53°55' E 007°46'0 0.1
2018-Jul-16 15:29N 53°55' E 007°46'0 0.0
2018-Jul-16 14:59N 53°55' E 007°46'0 0.0
2018-Jul-16 14:29N 53°55' E 007°46'0 0.0
2018-Jul-16 13:59N 53°55' E 007°46'0 0.0
2018-Jul-16 09:08N 53°55' E 007°46'0 0.3
2018-Jul-16 08:59N 53°55' E 007°46'0 0.0
2018-Jul-16 08:20N 53°55' E 007°46'0 0.0
2018-Jul-16 07:59N 53°55' E 007°46'0 0.0
2018-Jul-16 07:29N 53°55' E 007°46'0 0.0
2018-Jul-16 06:59N 53°55' E 007°46'0 0.0
2018-Jul-16 06:29N 53°55' E 007°46'0 0.0
2018-Jul-16 05:59N 53°55' E 007°46'0 0.0
2018-Jul-16 05:26N 53°55' E 007°46'0 0.0
2018-Jul-16 04:59N 53°55' E 007°46'0 0.0
2018-Jul-16 04:29N 53°55' E 007°46'0 0.0
2018-Jul-16 03:59N 53°55' E 007°46'0 0.0
2018-Jul-16 03:29N 53°55' E 007°46'0 0.0
2018-Jul-16 02:56N 53°55' E 007°46'0 0.0
2018-Jul-16 02:29N 53°55' E 007°46'0 0.0
2018-Jul-16 01:59N 53°55' E 007°46'0 0.0
2018-Jul-16 01:29N 53°55' E 007°46'0 0.1
2018-Jul-16 00:59N 53°55' E 007°47'0 0.0
2018-Jul-16 00:29N 53°55' E 007°47'0 0.0
2018-Jul-15 23:56N 53°55' E 007°47'0 0.0
2018-Jul-15 23:29N 53°55' E 007°47'0 0.0
2018-Jul-15 22:56N 53°55' E 007°47'0 0.0
2018-Jul-15 22:29N 53°55' E 007°47'0 0.0
2018-Jul-15 21:59N 53°55' E 007°47'0 0.0
2018-Jul-15 21:29N 53°55' E 007°47'0 0.1
2018-Jul-15 20:44N 53°55' E 007°46'0 0.1
2018-Jul-15 20:29N 53°55' E 007°46'0 0.0
2018-Jul-15 19:59N 53°55' E 007°46'0 0.0
2018-Jul-15 19:29N 53°55' E 007°46'0 0.0
2018-Jul-15 18:59N 53°55' E 007°46'0 0.0
2018-Jul-15 18:29N 53°55' E 007°46'0 0.1
2018-Jul-15 17:55N 53°55' E 007°46'1 2.0
2018-Jul-15 17:30N 53°55' E 007°45'2 4.9
2018-Jul-15 17:00N 53°55' E 007°41'611.8
2018-Jul-15 16:30N 53°54' E 007°31'713.4
2018-Jul-15 15:59N 53°53' E 007°19'713.6
2018-Jul-15 15:30N 53°51' E 007°09'713.7
2018-Jul-15 14:59N 53°50' E 006°57'813.8
2018-Jul-15 14:25N 53°48' E 006°44'1714.2
2018-Jul-15 13:12N 53°45' E 006°15'714.5
2018-Jul-15 12:45N 53°42' E 006°05'414.7
2018-Jul-15 12:29N 53°41' E 005°58'814.8
2018-Jul-15 11:58N 53°38' E 005°47'714.9
2018-Jul-15 11:30N 53°36' E 005°36'815.2
2018-Jul-15 11:00N 53°33' E 005°24'815.3
2018-Jul-15 10:30N 53°31' E 005°12'815.6
2018-Jul-15 10:01N 53°28' E 004°59'815.7
2018-Jul-15 09:30N 53°26' E 004°47'714.9
2018-Jul-15 09:00N 53°20' E 004°39'815.7
2018-Jul-15 08:30N 53°13' E 004°33'815.9
2018-Jul-15 08:01N 53°06' E 004°27'815.6
2018-Jul-15 07:30N 52°59' E 004°21'815.9
2018-Jul-15 07:00N 52°52' E 004°15'815.9
2018-Jul-15 06:30N 52°45' E 004°07'816.2
2018-Jul-15 06:00N 52°40' E 003°58'816.2
2018-Jul-15 05:30N 52°34' E 003°49'815.3
2018-Jul-15 05:00N 52°29' E 003°39'816.5
2018-Jul-15 04:30N 52°23' E 003°30'816.7
2018-Jul-15 04:00N 52°17' E 003°21'816.9
2018-Jul-15 03:30N 52°11' E 003°11'816.5
2018-Jul-15 03:01N 52°03' E 003°05'816.8
2018-Jul-15 02:30N 51°55' E 003°06'815.8
2018-Jul-15 02:00N 51°48' E 003°12'612.8
2018-Jul-15 01:30N 51°41' E 003°14'815.7
2018-Jul-15 01:00N 51°34' E 003°09'918.3
2018-Jul-15 00:30N 51°27' E 003°00'612.9
2018-Jul-15 00:00N 51°24' E 003°10'815.7
2018-Jul-14 23:30N 51°25' E 003°23'714.8
2018-Jul-14 23:00N 51°26' E 003°34'4 8.8
2018-Jul-14 22:30N 51°26' E 003°41'612.4
2018-Jul-14 22:00N 51°21' E 003°48'713.5
2018-Jul-14 21:30N 51°24' E 003°57'4 7.9
2018-Jul-14 21:00N 51°23' E 004°03'612.5
2018-Jul-14 20:30N 51°22' E 004°13'611.1
2018-Jul-14 20:00N 51°18' E 004°18'2 4.1
2018-Jul-14 19:31N 51°16' E 004°17'0 0.0
2018-Jul-14 19:01N 51°16' E 004°17'1 2.1
2018-Jul-14 18:30N 51°16' E 004°15'1 2.2
2018-Jul-14 17:58N 51°16' E 004°13'0 0.0
2018-Jul-14 17:28N 51°16' E 004°13'0 0.0
2018-Jul-14 16:58N 51°16' E 004°13'0 0.0
2018-Jul-14 16:28N 51°16' E 004°13'0 0.0
2018-Jul-14 15:55N 51°16' E 004°13'0 0.0
2018-Jul-14 15:28N 51°16' E 004°13'0 0.0
2018-Jul-14 14:58N 51°16' E 004°13'0 0.0
2018-Jul-14 14:28N 51°16' E 004°13'0 0.0
2018-Jul-14 13:28N 51°16' E 004°13'0 0.0
2018-Jul-14 12:58N 51°16' E 004°13'0 0.0
2018-Jul-14 12:28N 51°16' E 004°13'0 0.0
2018-Jul-14 11:58N 51°16' E 004°13'0 0.0
2018-Jul-14 11:28N 51°16' E 004°13'0 0.0
2018-Jul-14 10:58N 51°16' E 004°13'0 0.0
2018-Jul-14 10:28N 51°16' E 004°13'0 0.0
2018-Jul-14 09:58N 51°16' E 004°13'0 0.0
2018-Jul-14 09:28N 51°16' E 004°13'0 0.0
2018-Jul-14 08:58N 51°16' E 004°13'0 0.0
2018-Jul-14 08:28N 51°16' E 004°13'0 0.0
2018-Jul-14 07:58N 51°16' E 004°13'0 0.0
2018-Jul-14 07:28N 51°16' E 004°13'0 0.0
2018-Jul-14 06:58N 51°16' E 004°13'0 0.0
2018-Jul-14 06:28N 51°16' E 004°13'0 0.0
2018-Jul-14 05:58N 51°16' E 004°13'0 0.0
2018-Jul-14 05:28N 51°16' E 004°13'0 0.0
2018-Jul-14 04:58N 51°16' E 004°13'0 0.0
2018-Jul-14 04:28N 51°16' E 004°13'0 0.0
2018-Jul-14 03:58N 51°16' E 004°13'0 0.0
2018-Jul-14 03:28N 51°16' E 004°13'0 0.0
2018-Jul-14 02:58N 51°16' E 004°13'0 0.0
2018-Jul-14 02:28N 51°16' E 004°13'0 0.0
2018-Jul-14 01:58N 51°16' E 004°13'0 0.0
2018-Jul-14 01:28N 51°16' E 004°13'0 0.0
2018-Jul-14 00:58N 51°16' E 004°13'0 0.0
2018-Jul-14 00:28N 51°16' E 004°13'0 0.0
2018-Jul-13 23:58N 51°16' E 004°13'0 0.0
2018-Jul-13 23:28N 51°16' E 004°13'0 0.0
2018-Jul-13 22:58N 51°16' E 004°13'0 0.8
2018-Jul-13 22:31N 51°17' E 004°13'2 4.4
2018-Jul-13 22:00N 51°16' E 004°17'0 0.0
2018-Jul-13 21:31N 51°16' E 004°17'0 0.0
2018-Jul-13 21:01N 51°16' E 004°17'2 3.2
2018-Jul-13 20:30N 51°17' E 004°19'3 6.9
2018-Jul-13 20:00N 51°20' E 004°16'5 9.1
2018-Jul-13 19:30N 51°23' E 004°13'510.6
2018-Jul-13 19:00N 51°22' E 004°04'5 9.9
2018-Jul-13 18:31N 51°26' E 003°59'612.8
2018-Jul-13 18:00N 51°21' E 003°52'612.8
2018-Jul-13 17:31N 51°23' E 003°43'5 9.4
2018-Jul-13 17:00N 51°26' E 003°36'611.7
2018-Jul-13 16:30N 51°25' E 003°27'713.0
2018-Jul-13 16:00N 51°24' E 003°16'714.1
2018-Jul-13 15:30N 51°24' E 003°05'714.6
2018-Jul-13 15:00N 51°22' E 002°54'9 9.4
2018-Jul-13 14:00N 51°22' E 002°39'2 4.9
2018-Jul-13 13:30N 51°22' E 002°35'2 4.9
2018-Jul-13 13:00N 51°22' E 002°31'2 3.9
2018-Jul-13 12:30N 51°21' E 002°28'2 3.0
2018-Jul-13 11:52N 51°21' E 002°25'1 2.8
2018-Jul-13 11:29N 51°20' E 002°24'2 3.5
2018-Jul-13 11:00N 51°19' E 002°21'1 3.0
2018-Jul-13 10:30N 51°19' E 002°19'2 4.5
2018-Jul-13 10:00N 51°18' E 002°16'2 4.3
2018-Jul-13 09:30N 51°18' E 002°12'1 2.8
2018-Jul-13 09:00N 51°18' E 002°10'3 5.2
2018-Jul-13 08:30N 51°15' E 002°10'815.7
2018-Jul-13 08:00N 51°12' E 001°58'815.3
2018-Jul-13 07:30N 51°08' E 001°48'815.1
2018-Jul-13 07:00N 51°03' E 001°39'714.9
2018-Jul-13 06:31N 50°57' E 001°32'714.9
2018-Jul-13 06:01N 50°50' E 001°27'815.4
2018-Jul-13 05:31N 50°43' E 001°23'815.5
2018-Jul-13 05:00N 50°37' E 001°15'816.1
2018-Jul-13 04:30N 50°32' E 001°04'815.8
2018-Jul-13 03:59N 50°28' E 000°53'815.9
2018-Jul-13 03:30N 50°25' E 000°42'1615.5
2018-Jul-13 02:28N 50°22' E 000°17'715.3
2018-Jul-13 02:01N 50°20' E 000°07'1115.4
2018-Jul-13 01:18N 50°18' W 000°10'515.3
2018-Jul-13 01:00N 50°17' W 000°17'815.2
2018-Jul-13 00:30N 50°16' W 000°29'713.9
2018-Jul-13 00:00N 50°20' W 000°38'816.4
2018-Jul-12 23:30N 50°27' W 000°44'816.3
2018-Jul-12 23:00N 50°34' W 000°51'815.7
2018-Jul-12 22:30N 50°41' W 000°57'5 9.5
2018-Jul-12 22:01N 50°44' W 001°03'816.2
2018-Jul-12 21:31N 50°46' W 001°15'5 9.9
2018-Jul-12 21:00N 50°50' W 001°19'4 8.5
2018-Jul-12 20:30N 50°53' W 001°24'0 0.4
2018-Jul-12 19:58N 50°53' W 001°24'0 0.0
2018-Jul-12 19:28N 50°53' W 001°24'0 0.0
2018-Jul-12 18:58N 50°53' W 001°24'0 0.0
2018-Jul-12 18:28N 50°53' W 001°24'0 0.0
2018-Jul-12 17:58N 50°53' W 001°24'0 0.0
2018-Jul-12 17:28N 50°53' W 001°24'0 0.0
2018-Jul-12 16:58N 50°53' W 001°24'0 0.0
2018-Jul-12 16:28N 50°53' W 001°24'0 0.0
2018-Jul-12 15:58N 50°53' W 001°24'0 0.0
2018-Jul-12 15:28N 50°53' W 001°24'0 0.0
2018-Jul-12 14:58N 50°53' W 001°24'0 0.0
2018-Jul-12 14:28N 50°53' W 001°24'0 0.0
2018-Jul-12 13:58N 50°53' W 001°24'0 0.0
2018-Jul-12 13:28N 50°53' W 001°24'0 0.0
2018-Jul-12 12:58N 50°53' W 001°24'0 0.0
2018-Jul-12 12:28N 50°53' W 001°24'0 0.0
2018-Jul-12 11:58N 50°53' W 001°24'0 0.0
2018-Jul-12 11:28N 50°53' W 001°24'0 0.0
2018-Jul-12 10:58N 50°53' W 001°24'0 0.0
2018-Jul-12 10:28N 50°53' W 001°24'0 0.0
2018-Jul-12 09:58N 50°53' W 001°24'0 0.0
2018-Jul-12 09:28N 50°53' W 001°24'0 0.0
2018-Jul-12 08:58N 50°53' W 001°24'0 0.0
2018-Jul-12 08:28N 50°53' W 001°24'0 0.0
2018-Jul-12 07:58N 50°53' W 001°24'0 0.0
2018-Jul-12 07:28N 50°53' W 001°24'0 0.0
2018-Jul-12 06:58N 50°53' W 001°24'0 0.0
2018-Jul-12 06:28N 50°53' W 001°24'0 0.0
2018-Jul-12 05:58N 50°53' W 001°24'0 0.0
2018-Jul-12 05:29N 50°53' W 001°24'1 1.9
2018-Jul-12 05:01N 50°53' W 001°23'5 9.6
2018-Jul-12 04:31N 50°49' W 001°18'5 9.8
2018-Jul-12 04:01N 50°46' W 001°12'816.0
2018-Jul-12 03:31N 50°43' W 001°00'4 8.5
2018-Jul-12 03:00N 50°39' W 000°59'2 4.6
2018-Jul-12 02:31N 50°37' W 001°01'1 2.2
2018-Jul-12 02:00N 50°37' W 001°03'0 0.0
2018-Jul-12 01:30N 50°37' W 001°03'0 0.0
2018-Jul-12 01:00N 50°37' W 001°03'0 0.0
2018-Jul-12 00:30N 50°37' W 001°03'0 0.0
2018-Jul-12 00:00N 50°37' W 001°03'0 0.0
2018-Jul-11 23:30N 50°37' W 001°03'0 0.0
2018-Jul-11 23:00N 50°37' W 001°03'0 0.0
2018-Jul-11 22:30N 50°37' W 001°03'0 0.0
2018-Jul-11 22:00N 50°37' W 001°03'0 0.1
2018-Jul-11 21:30N 50°37' W 001°03'0 0.0
2018-Jul-11 21:00N 50°37' W 001°03'0 0.0
2018-Jul-11 20:30N 50°37' W 001°03'0 0.0
2018-Jul-11 20:00N 50°37' W 001°03'0 0.0
2018-Jul-11 19:30N 50°37' W 001°03'0 0.0
2018-Jul-11 19:00N 50°37' W 001°03'0 0.0
2018-Jul-11 18:30N 50°37' W 001°03'0 0.0
2018-Jul-11 18:00N 50°37' W 001°03'0 0.0
2018-Jul-11 17:30N 50°37' W 001°03'0 0.0
2018-Jul-11 17:00N 50°37' W 001°03'0 0.0
2018-Jul-11 16:30N 50°37' W 001°03'0 0.0
2018-Jul-11 16:00N 50°37' W 001°03'0 0.0
2018-Jul-11 15:30N 50°37' W 001°03'0 0.0
2018-Jul-11 15:00N 50°37' W 001°03'0 0.2
2018-Jul-11 14:30N 50°37' W 001°03'0 0.0
2018-Jul-11 14:00N 50°37' W 001°03'0 0.0
2018-Jul-11 13:30N 50°37' W 001°03'0 0.0
2018-Jul-11 13:00N 50°37' W 001°03'0 0.0
2018-Jul-11 12:30N 50°37' W 001°03'0 0.0
2018-Jul-11 12:00N 50°37' W 001°03'0 0.0
2018-Jul-11 11:30N 50°37' W 001°03'0 0.0
2018-Jul-11 11:00N 50°37' W 001°03'0 0.0
2018-Jul-11 10:30N 50°37' W 001°03'0 0.0
2018-Jul-11 10:00N 50°37' W 001°03'0 0.0
2018-Jul-11 09:30N 50°37' W 001°03'0 0.0
2018-Jul-11 09:00N 50°37' W 001°03'0 0.2
2018-Jul-11 08:30N 50°37' W 001°03'0 0.1
2018-Jul-11 08:00N 50°37' W 001°03'0 0.0
2018-Jul-11 07:30N 50°37' W 001°03'0 0.0
2018-Jul-11 07:00N 50°37' W 001°03'0 0.0
2018-Jul-11 06:30N 50°37' W 001°03'0 0.0
2018-Jul-11 06:00N 50°37' W 001°03'0 0.0
2018-Jul-11 05:30N 50°37' W 001°03'0 0.0
2018-Jul-11 05:00N 50°37' W 001°03'0 0.0
2018-Jul-11 04:30N 50°37' W 001°03'0 0.0
2018-Jul-11 04:00N 50°37' W 001°03'0 0.1
2018-Jul-11 03:30N 50°37' W 001°03'1 2.6
2018-Jul-11 03:01N 50°36' W 001°02'4 7.2
2018-Jul-11 02:31N 50°33' W 001°04'4 7.7
2018-Jul-11 02:00N 50°29' W 001°06'5 9.5
2018-Jul-11 01:30N 50°25' W 001°08'1113.0
2018-Jul-11 00:39N 50°14' W 001°07'212.9
2018-Jul-11 00:30N 50°12' W 001°08'611.5
2018-Jul-10 23:57N 50°08' W 001°16'511.7
2018-Jul-10 23:30N 50°07' W 001°24'611.7
2018-Jul-10 23:00N 50°05' W 001°33'611.9
2018-Jul-10 22:30N 50°03' W 001°41'1712.8
2018-Jul-10 21:12N 49°58' W 002°06'614.0
2018-Jul-10 20:48N 49°57' W 002°15'414.3
2018-Jul-10 20:30N 49°55' W 002°21'814.9
2018-Jul-10 19:57N 49°53' W 002°33'715.5
2018-Jul-10 19:30N 49°51' W 002°43'815.3
2018-Jul-10 19:00N 49°49' W 002°55'815.5
2018-Jul-10 18:30N 49°48' W 003°07'714.4
2018-Jul-10 18:00N 49°47' W 003°18'714.7
2018-Jul-10 17:30N 49°46' W 003°29'715.0
2018-Jul-10 17:00N 49°46' W 003°41'815.9
2018-Jul-10 16:30N 49°45' W 003°53'915.9
2018-Jul-10 15:58N 49°44' W 004°06'2110.5
2018-Jul-10 13:58N 49°42' W 004°38'911.7
2018-Jul-10 13:12N 49°44' W 004°25'4714.0
2018-Jul-10 09:50N 49°39' W 005°37'1214.0
2018-Jul-10 09:01N 49°39' W 005°55'015.2
2018-Jul-10 09:00N 49°39' W 005°55'7114.1
2018-Jul-10 03:57N 49°36' W 007°45'  

Dump ship's entire track history